Hayes, Virginia
Current Conditions -  °F | °C
As of 4:03 AM on Saturday 25 Oct 2014 (Local Time) from KPHF Reporting Station
Haze Haze  
Wind Chill: 45°   Ceiling: Unl
Heat Index: 45°   Visibility: 3mi
Dew Point: 43°   Wind: 0mph
Humidity: 93%   Direction: NA
Pressure: 29.95"   Gusts: NA
Location:  37.28°N, 76.49°W
Report Text: KPHF 250803Z 00000KT 3SM BR CLR 07/06 A2995 RMK AO2 T00720061
Loading
Personal Weather Stations






























Interactive Weather Map
Tropical Storm Tracking
New forecast layout! Learn more

10-Day Weather Forecast

Advertisements
Track Severe Weather on mobile